sensor_id;sensor_type;location;lat;lon;timestamp;P1;durP1;ratioP1;P2;durP2;ratioP2
8913;SDS011;4492;48.736;9.092;2022-12-07T00:00:55;11.00;;;7.43;;
8913;SDS011;4492;48.736;9.092;2022-12-07T00:03:29;11.90;;;7.20;;
8913;SDS011;4492;48.736;9.092;2022-12-07T00:05:57;12.37;;;7.67;;
8913;SDS011;4492;48.736;9.092;2022-12-07T00:08:23;11.07;;;6.70;;
8913;SDS011;4492;48.736;9.092;2022-12-07T00:10:48;12.57;;;7.43;;
8913;SDS011;4492;48.736;9.092;2022-12-07T00:13:14;13.73;;;7.83;;
8913;SDS011;4492;48.736;9.092;2022-12-07T00:15:39;13.53;;;7.83;;
8913;SDS011;4492;48.736;9.092;2022-12-07T00:18:05;11.90;;;7.70;;
8913;SDS011;4492;48.736;9.092;2022-12-07T00:20:30;13.43;;;7.00;;
8913;SDS011;4492;48.736;9.092;2022-12-07T00:22:56;14.20;;;6.83;;
8913;SDS011;4492;48.736;9.092;2022-12-07T00:25:22;13.03;;;7.20;;
8913;SDS011;4492;48.736;9.092;2022-12-07T00:27:47;13.80;;;7.13;;
8913;SDS011;4492;48.736;9.092;2022-12-07T00:30:13;12.63;;;7.47;;
8913;SDS011;4492;48.736;9.092;2022-12-07T00:32:39;12.20;;;7.57;;
8913;SDS011;4492;48.736;9.092;2022-12-07T00:35:04;11.97;;;7.40;;
8913;SDS011;4492;48.736;9.092;2022-12-07T00:37:30;13.23;;;8.03;;
8913;SDS011;4492;48.736;9.092;2022-12-07T00:39:55;11.87;;;7.10;;
8913;SDS011;4492;48.736;9.092;2022-12-07T00:42:21;11.37;;;7.87;;
8913;SDS011;4492;48.736;9.092;2022-12-07T00:44:46;12.50;;;6.93;;
8913;SDS011;4492;48.736;9.092;2022-12-07T00:47:12;10.07;;;7.03;;
8913;SDS011;4492;48.736;9.092;2022-12-07T00:49:37;11.77;;;7.23;;
8913;SDS011;4492;48.736;9.092;2022-12-07T00:52:03;12.00;;;7.40;;
8913;SDS011;4492;48.736;9.092;2022-12-07T00:54:29;9.87;;;6.80;;
8913;SDS011;4492;48.736;9.092;2022-12-07T00:56:54;11.80;;;7.17;;
8913;SDS011;4492;48.736;9.092;2022-12-07T00:59:20;12.47;;;7.40;;
8913;SDS011;4492;48.736;9.092;2022-12-07T01:01:45;12.47;;;7.40;;
8913;SDS011;4492;48.736;9.092;2022-12-07T01:04:11;12.03;;;7.27;;
8913;SDS011;4492;48.736;9.092;2022-12-07T01:06:36;10.53;;;6.60;;
8913;SDS011;4492;48.736;9.092;2022-12-07T01:09:03;13.27;;;7.27;;
8913;SDS011;4492;48.736;9.092;2022-12-07T01:11:30;10.63;;;6.53;;
8913;SDS011;4492;48.736;9.092;2022-12-07T01:13:56;11.17;;;6.90;;
8913;SDS011;4492;48.736;9.092;2022-12-07T01:16:24;11.00;;;7.53;;
8913;SDS011;4492;48.736;9.092;2022-12-07T01:18:51;11.47;;;7.53;;
8913;SDS011;4492;48.736;9.092;2022-12-07T01:21:20;12.60;;;8.33;;
8913;SDS011;4492;48.736;9.092;2022-12-07T01:23:50;11.30;;;7.77;;
8913;SDS011;4492;48.736;9.092;2022-12-07T01:26:18;11.73;;;7.97;;
8913;SDS011;4492;48.736;9.092;2022-12-07T01:28:46;11.93;;;7.90;;
8913;SDS011;4492;48.736;9.092;2022-12-07T01:31:12;13.03;;;7.77;;
8913;SDS011;4492;48.736;9.092;2022-12-07T01:33:40;12.30;;;7.70;;
8913;SDS011;4492;48.736;9.092;2022-12-07T01:36:08;13.43;;;8.20;;
8913;SDS011;4492;48.736;9.092;2022-12-07T01:38:42;11.63;;;7.70;;
8913;SDS011;4492;48.736;9.092;2022-12-07T01:41:08;10.80;;;7.77;;
8913;SDS011;4492;48.736;9.092;2022-12-07T01:43:35;13.70;;;8.10;;
8913;SDS011;4492;48.736;9.092;2022-12-07T01:46:01;13.93;;;8.10;;
8913;SDS011;4492;48.736;9.092;2022-12-07T01:48:30;14.00;;;8.03;;
8913;SDS011;4492;48.736;9.092;2022-12-07T01:51:04;15.47;;;8.70;;
8913;SDS011;4492;48.736;9.092;2022-12-07T01:53:34;12.00;;;7.90;;
8913;SDS011;4492;48.736;9.092;2022-12-07T01:56:03;13.10;;;7.43;;
8913;SDS011;4492;48.736;9.092;2022-12-07T01:58:29;14.20;;;8.50;;
8913;SDS011;4492;48.736;9.092;2022-12-07T02:00:56;14.30;;;8.37;;
8913;SDS011;4492;48.736;9.092;2022-12-07T02:03:22;13.03;;;7.67;;
8913;SDS011;4492;48.736;9.092;2022-12-07T02:05:52;13.57;;;8.60;;
8913;SDS011;4492;48.736;9.092;2022-12-07T02:08:19;14.20;;;8.07;;
8913;SDS011;4492;48.736;9.092;2022-12-07T02:10:45;12.10;;;7.70;;
8913;SDS011;4492;48.736;9.092;2022-12-07T02:13:21;13.27;;;8.00;;
8913;SDS011;4492;48.736;9.092;2022-12-07T02:35:11;13.77;;;8.37;;
8913;SDS011;4492;48.736;9.092;2022-12-07T02:40:20;15.00;;;7.70;;
8913;SDS011;4492;48.736;9.092;2022-12-07T02:43:10;12.83;;;7.87;;
8913;SDS011;4492;48.736;9.092;2022-12-07T02:45:41;16.10;;;8.37;;
8913;SDS011;4492;48.736;9.092;2022-12-07T02:48:10;13.87;;;8.53;;
8913;SDS011;4492;48.736;9.092;2022-12-07T02:50:38;14.47;;;8.90;;
8913;SDS011;4492;48.736;9.092;2022-12-07T02:53:04;13.43;;;8.53;;
8913;SDS011;4492;48.736;9.092;2022-12-07T02:55:34;12.30;;;8.17;;
8913;SDS011;4492;48.736;9.092;2022-12-07T02:58:13;12.97;;;8.37;;
8913;SDS011;4492;48.736;9.092;2022-12-07T03:00:49;14.27;;;8.70;;
8913;SDS011;4492;48.736;9.092;2022-12-07T03:03:23;13.20;;;8.07;;
8913;SDS011;4492;48.736;9.092;2022-12-07T03:08:39;14.13;;;8.20;;
8913;SDS011;4492;48.736;9.092;2022-12-07T03:11:33;15.37;;;8.60;;
8913;SDS011;4492;48.736;9.092;2022-12-07T03:14:15;12.90;;;8.20;;
8913;SDS011;4492;48.736;9.092;2022-12-07T03:16:57;13.43;;;8.07;;
8913;SDS011;4492;48.736;9.092;2022-12-07T03:19:31;13.43;;;7.67;;
8913;SDS011;4492;48.736;9.092;2022-12-07T03:22:12;16.00;;;8.47;;
8913;SDS011;4492;48.736;9.092;2022-12-07T03:24:46;17.80;;;8.80;;
8913;SDS011;4492;48.736;9.092;2022-12-07T03:27:21;12.37;;;8.20;;
8913;SDS011;4492;48.736;9.092;2022-12-07T03:30:35;16.10;;;8.40;;
8913;SDS011;4492;48.736;9.092;2022-12-07T03:33:01;13.03;;;7.93;;
8913;SDS011;4492;48.736;9.092;2022-12-07T03:35:41;14.53;;;7.97;;
8913;SDS011;4492;48.736;9.092;2022-12-07T03:38:30;12.80;;;7.90;;
8913;SDS011;4492;48.736;9.092;2022-12-07T03:41:06;12.07;;;7.87;;
8913;SDS011;4492;48.736;9.092;2022-12-07T03:43:37;13.33;;;7.90;;
8913;SDS011;4492;48.736;9.092;2022-12-07T03:51:46;13.60;;;8.23;;
8913;SDS011;4492;48.736;9.092;2022-12-07T03:54:34;15.13;;;8.77;;
8913;SDS011;4492;48.736;9.092;2022-12-07T03:57:04;14.97;;;9.20;;
8913;SDS011;4492;48.736;9.092;2022-12-07T03:59:32;13.43;;;8.57;;
8913;SDS011;4492;48.736;9.092;2022-12-07T04:02:01;14.70;;;8.20;;
8913;SDS011;4492;48.736;9.092;2022-12-07T04:04:29;12.40;;;8.10;;
8913;SDS011;4492;48.736;9.092;2022-12-07T04:06:54;16.87;;;8.97;;
8913;SDS011;4492;48.736;9.092;2022-12-07T04:09:20;14.93;;;9.27;;
8913;SDS011;4492;48.736;9.092;2022-12-07T04:11:46;12.13;;;7.97;;
8913;SDS011;4492;48.736;9.092;2022-12-07T04:14:12;14.73;;;8.83;;
8913;SDS011;4492;48.736;9.092;2022-12-07T04:16:44;17.33;;;9.00;;
8913;SDS011;4492;48.736;9.092;2022-12-07T04:19:14;16.00;;;9.00;;
8913;SDS011;4492;48.736;9.092;2022-12-07T04:21:40;14.33;;;8.50;;
8913;SDS011;4492;48.736;9.092;2022-12-07T04:24:06;13.73;;;8.37;;
8913;SDS011;4492;48.736;9.092;2022-12-07T04:26:31;12.67;;;7.97;;
8913;SDS011;4492;48.736;9.092;2022-12-07T04:28:57;12.00;;;7.57;;
8913;SDS011;4492;48.736;9.092;2022-12-07T04:31:22;11.73;;;7.60;;
8913;SDS011;4492;48.736;9.092;2022-12-07T04:33:48;13.07;;;7.83;;
8913;SDS011;4492;48.736;9.092;2022-12-07T04:36:14;13.00;;;8.00;;
8913;SDS011;4492;48.736;9.092;2022-12-07T04:38:39;12.97;;;8.47;;
8913;SDS011;4492;48.736;9.092;2022-12-07T04:41:05;15.17;;;8.03;;
8913;SDS011;4492;48.736;9.092;2022-12-07T04:43:32;11.40;;;7.60;;
8913;SDS011;4492;48.736;9.092;2022-12-07T04:45:58;10.70;;;7.00;;
8913;SDS011;4492;48.736;9.092;2022-12-07T04:48:24;10.80;;;6.53;;
8913;SDS011;4492;48.736;9.092;2022-12-07T04:50:49;9.90;;;5.80;;
8913;SDS011;4492;48.736;9.092;2022-12-07T04:53:15;8.93;;;6.00;;
8913;SDS011;4492;48.736;9.092;2022-12-07T04:55:41;12.57;;;6.90;;
8913;SDS011;4492;48.736;9.092;2022-12-07T04:58:07;10.37;;;6.23;;
8913;SDS011;4492;48.736;9.092;2022-12-07T05:00:32;10.60;;;6.43;;
8913;SDS011;4492;48.736;9.092;2022-12-07T05:02:58;11.80;;;6.00;;
8913;SDS011;4492;48.736;9.092;2022-12-07T05:05:23;9.30;;;5.63;;
8913;SDS011;4492;48.736;9.092;2022-12-07T05:07:49;8.80;;;6.17;;
8913;SDS011;4492;48.736;9.092;2022-12-07T05:10:15;9.07;;;5.80;;
8913;SDS011;4492;48.736;9.092;2022-12-07T05:12:41;9.20;;;5.63;;
8913;SDS011;4492;48.736;9.092;2022-12-07T05:15:07;7.50;;;5.40;;
8913;SDS011;4492;48.736;9.092;2022-12-07T05:17:32;9.27;;;5.53;;
8913;SDS011;4492;48.736;9.092;2022-12-07T05:19:58;8.13;;;5.23;;
8913;SDS011;4492;48.736;9.092;2022-12-07T05:22:23;7.33;;;4.67;;
8913;SDS011;4492;48.736;9.092;2022-12-07T05:24:53;6.00;;;4.37;;
8913;SDS011;4492;48.736;9.092;2022-12-07T05:27:19;6.77;;;4.77;;
8913;SDS011;4492;48.736;9.092;2022-12-07T05:29:44;5.87;;;4.23;;
8913;SDS011;4492;48.736;9.092;2022-12-07T05:32:10;7.07;;;4.87;;
8913;SDS011;4492;48.736;9.092;2022-12-07T05:34:35;6.27;;;4.70;;
8913;SDS011;4492;48.736;9.092;2022-12-07T05:37:01;6.93;;;4.73;;
8913;SDS011;4492;48.736;9.092;2022-12-07T05:39:26;8.37;;;5.43;;
8913;SDS011;4492;48.736;9.092;2022-12-07T05:41:52;9.83;;;5.83;;
8913;SDS011;4492;48.736;9.092;2022-12-07T05:44:36;8.77;;;5.67;;
8913;SDS011;4492;48.736;9.092;2022-12-07T05:47:02;8.27;;;5.50;;
8913;SDS011;4492;48.736;9.092;2022-12-07T05:49:27;9.90;;;5.53;;
8913;SDS011;4492;48.736;9.092;2022-12-07T05:51:53;8.27;;;5.50;;
8913;SDS011;4492;48.736;9.092;2022-12-07T05:54:18;7.73;;;5.20;;
8913;SDS011;4492;48.736;9.092;2022-12-07T05:56:51;7.70;;;5.23;;
8913;SDS011;4492;48.736;9.092;2022-12-07T05:59:17;6.67;;;5.07;;
8913;SDS011;4492;48.736;9.092;2022-12-07T06:01:49;7.87;;;5.27;;
8913;SDS011;4492;48.736;9.092;2022-12-07T06:04:20;6.80;;;4.73;;
8913;SDS011;4492;48.736;9.092;2022-12-07T06:06:46;9.50;;;5.53;;
8913;SDS011;4492;48.736;9.092;2022-12-07T06:09:11;8.27;;;5.07;;
8913;SDS011;4492;48.736;9.092;2022-12-07T06:11:38;9.13;;;5.80;;
8913;SDS011;4492;48.736;9.092;2022-12-07T06:14:23;9.20;;;5.47;;
8913;SDS011;4492;48.736;9.092;2022-12-07T06:16:49;9.77;;;5.77;;
8913;SDS011;4492;48.736;9.092;2022-12-07T06:19:14;10.43;;;6.20;;
8913;SDS011;4492;48.736;9.092;2022-12-07T06:21:40;10.07;;;5.97;;
8913;SDS011;4492;48.736;9.092;2022-12-07T06:24:05;10.10;;;6.17;;
8913;SDS011;4492;48.736;9.092;2022-12-07T06:26:31;9.60;;;5.93;;
8913;SDS011;4492;48.736;9.092;2022-12-07T06:28:57;12.43;;;7.80;;
8913;SDS011;4492;48.736;9.092;2022-12-07T06:31:22;8.67;;;5.80;;
8913;SDS011;4492;48.736;9.092;2022-12-07T06:33:48;10.83;;;6.67;;
8913;SDS011;4492;48.736;9.092;2022-12-07T06:36:14;8.97;;;6.00;;
8913;SDS011;4492;48.736;9.092;2022-12-07T06:38:39;10.17;;;6.63;;
8913;SDS011;4492;48.736;9.092;2022-12-07T06:41:05;9.80;;;6.17;;
8913;SDS011;4492;48.736;9.092;2022-12-07T06:43:31;9.53;;;5.90;;
8913;SDS011;4492;48.736;9.092;2022-12-07T06:45:57;7.57;;;5.30;;
8913;SDS011;4492;48.736;9.092;2022-12-07T06:48:22;9.40;;;5.90;;
8913;SDS011;4492;48.736;9.092;2022-12-07T06:50:48;8.80;;;5.50;;
8913;SDS011;4492;48.736;9.092;2022-12-07T06:53:14;9.83;;;5.60;;
8913;SDS011;4492;48.736;9.092;2022-12-07T06:55:39;8.03;;;5.27;;
8913;SDS011;4492;48.736;9.092;2022-12-07T06:58:05;11.57;;;5.57;;
8913;SDS011;4492;48.736;9.092;2022-12-07T07:00:30;7.87;;;5.33;;
8913;SDS011;4492;48.736;9.092;2022-12-07T07:02:56;8.00;;;5.07;;
8913;SDS011;4492;48.736;9.092;2022-12-07T07:05:22;8.33;;;5.63;;
8913;SDS011;4492;48.736;9.092;2022-12-07T07:07:48;7.67;;;5.07;;
8913;SDS011;4492;48.736;9.092;2022-12-07T07:10:14;6.70;;;4.80;;
8913;SDS011;4492;48.736;9.092;2022-12-07T07:12:40;8.97;;;5.23;;
8913;SDS011;4492;48.736;9.092;2022-12-07T07:15:05;6.80;;;4.70;;
8913;SDS011;4492;48.736;9.092;2022-12-07T07:17:31;7.43;;;4.87;;
8913;SDS011;4492;48.736;9.092;2022-12-07T07:19:57;9.77;;;4.87;;
8913;SDS011;4492;48.736;9.092;2022-12-07T07:22:22;8.47;;;4.43;;
8913;SDS011;4492;48.736;9.092;2022-12-07T07:24:48;7.50;;;4.83;;
8913;SDS011;4492;48.736;9.092;2022-12-07T07:27:13;7.20;;;5.07;;
8913;SDS011;4492;48.736;9.092;2022-12-07T07:29:39;7.23;;;4.63;;
8913;SDS011;4492;48.736;9.092;2022-12-07T07:32:04;6.20;;;4.33;;
8913;SDS011;4492;48.736;9.092;2022-12-07T07:34:30;6.57;;;4.13;;
8913;SDS011;4492;48.736;9.092;2022-12-07T07:36:56;7.53;;;4.60;;
8913;SDS011;4492;48.736;9.092;2022-12-07T07:39:21;5.87;;;4.10;;
8913;SDS011;4492;48.736;9.092;2022-12-07T07:41:47;6.83;;;4.93;;
8913;SDS011;4492;48.736;9.092;2022-12-07T07:44:12;7.90;;;4.97;;
8913;SDS011;4492;48.736;9.092;2022-12-07T07:46:38;7.83;;;4.60;;
8913;SDS011;4492;48.736;9.092;2022-12-07T07:49:04;6.73;;;4.40;;
8913;SDS011;4492;48.736;9.092;2022-12-07T07:51:29;6.87;;;4.60;;
8913;SDS011;4492;48.736;9.092;2022-12-07T07:53:55;7.67;;;4.80;;
8913;SDS011;4492;48.736;9.092;2022-12-07T07:56:20;8.87;;;5.20;;
8913;SDS011;4492;48.736;9.092;2022-12-07T07:58:46;7.60;;;5.13;;
8913;SDS011;4492;48.736;9.092;2022-12-07T08:01:11;8.20;;;5.53;;
8913;SDS011;4492;48.736;9.092;2022-12-07T08:03:38;10.47;;;5.20;;
8913;SDS011;4492;48.736;9.092;2022-12-07T08:06:04;10.10;;;4.90;;
8913;SDS011;4492;48.736;9.092;2022-12-07T08:08:31;8.90;;;5.30;;
8913;SDS011;4492;48.736;9.092;2022-12-07T08:10:57;8.10;;;4.73;;
8913;SDS011;4492;48.736;9.092;2022-12-07T08:13:25;6.87;;;4.57;;
8913;SDS011;4492;48.736;9.092;2022-12-07T08:15:51;8.57;;;5.03;;
8913;SDS011;4492;48.736;9.092;2022-12-07T08:18:16;8.53;;;4.80;;
8913;SDS011;4492;48.736;9.092;2022-12-07T08:20:42;6.90;;;4.50;;
8913;SDS011;4492;48.736;9.092;2022-12-07T08:23:08;8.40;;;5.20;;
8913;SDS011;4492;48.736;9.092;2022-12-07T08:25:35;9.63;;;4.63;;
8913;SDS011;4492;48.736;9.092;2022-12-07T08:28:01;6.73;;;4.77;;
8913;SDS011;4492;48.736;9.092;2022-12-07T08:30:27;8.47;;;4.87;;
8913;SDS011;4492;48.736;9.092;2022-12-07T08:32:54;8.20;;;4.33;;
8913;SDS011;4492;48.736;9.092;2022-12-07T08:35:20;6.33;;;4.53;;
8913;SDS011;4492;48.736;9.092;2022-12-07T08:37:46;8.80;;;4.63;;
8913;SDS011;4492;48.736;9.092;2022-12-07T08:40:12;6.60;;;4.30;;
8913;SDS011;4492;48.736;9.092;2022-12-07T08:42:40;6.70;;;4.17;;
8913;SDS011;4492;48.736;9.092;2022-12-07T08:45:10;6.80;;;4.60;;
8913;SDS011;4492;48.736;9.092;2022-12-07T08:47:37;6.37;;;4.17;;
8913;SDS011;4492;48.736;9.092;2022-12-07T08:50:06;5.43;;;4.10;;
8913;SDS011;4492;48.736;9.092;2022-12-07T08:52:34;5.83;;;4.07;;
8913;SDS011;4492;48.736;9.092;2022-12-07T08:55:00;6.97;;;4.93;;
8913;SDS011;4492;48.736;9.092;2022-12-07T08:57:28;6.33;;;4.30;;
8913;SDS011;4492;48.736;9.092;2022-12-07T08:59:54;7.70;;;4.13;;
8913;SDS011;4492;48.736;9.092;2022-12-07T09:02:20;8.63;;;4.50;;
8913;SDS011;4492;48.736;9.092;2022-12-07T09:04:46;6.60;;;4.70;;
8913;SDS011;4492;48.736;9.092;2022-12-07T09:07:11;5.23;;;3.80;;
8913;SDS011;4492;48.736;9.092;2022-12-07T09:09:37;5.20;;;4.10;;
8913;SDS011;4492;48.736;9.092;2022-12-07T09:12:03;6.23;;;4.10;;
8913;SDS011;4492;48.736;9.092;2022-12-07T09:14:29;5.00;;;3.90;;
8913;SDS011;4492;48.736;9.092;2022-12-07T09:16:54;7.33;;;4.30;;
8913;SDS011;4492;48.736;9.092;2022-12-07T09:19:20;6.07;;;4.20;;
8913;SDS011;4492;48.736;9.092;2022-12-07T09:21:45;6.40;;;4.23;;
8913;SDS011;4492;48.736;9.092;2022-12-07T09:24:12;4.17;;;3.63;;
8913;SDS011;4492;48.736;9.092;2022-12-07T09:26:38;6.60;;;4.30;;
8913;SDS011;4492;48.736;9.092;2022-12-07T09:29:05;5.80;;;4.17;;
8913;SDS011;4492;48.736;9.092;2022-12-07T09:31:31;4.33;;;3.77;;
8913;SDS011;4492;48.736;9.092;2022-12-07T09:33:57;5.20;;;4.07;;
8913;SDS011;4492;48.736;9.092;2022-12-07T09:36:24;4.97;;;3.70;;
8913;SDS011;4492;48.736;9.092;2022-12-07T09:38:50;4.87;;;3.80;;
8913;SDS011;4492;48.736;9.092;2022-12-07T09:41:16;7.77;;;3.83;;
8913;SDS011;4492;48.736;9.092;2022-12-07T09:43:42;7.20;;;3.93;;
8913;SDS011;4492;48.736;9.092;2022-12-07T09:46:08;3.97;;;3.03;;
8913;SDS011;4492;48.736;9.092;2022-12-07T09:48:39;4.73;;;3.67;;
8913;SDS011;4492;48.736;9.092;2022-12-07T09:51:17;6.17;;;3.70;;
8913;SDS011;4492;48.736;9.092;2022-12-07T09:53:43;5.97;;;3.47;;
8913;SDS011;4492;48.736;9.092;2022-12-07T09:56:13;5.23;;;3.63;;
8913;SDS011;4492;48.736;9.092;2022-12-07T09:58:41;4.60;;;3.53;;
8913;SDS011;4492;48.736;9.092;2022-12-07T10:03:34;4.27;;;3.30;;
8913;SDS011;4492;48.736;9.092;2022-12-07T10:06:03;4.53;;;3.10;;
8913;SDS011;4492;48.736;9.092;2022-12-07T10:08:30;3.50;;;3.20;;
8913;SDS011;4492;48.736;9.092;2022-12-07T10:10:56;4.20;;;3.27;;
8913;SDS011;4492;48.736;9.092;2022-12-07T10:13:32;5.63;;;3.33;;
8913;SDS011;4492;48.736;9.092;2022-12-07T10:16:00;5.87;;;3.13;;
8913;SDS011;4492;48.736;9.092;2022-12-07T10:18:33;6.57;;;3.30;;
8913;SDS011;4492;48.736;9.092;2022-12-07T10:23:38;5.43;;;3.50;;
8913;SDS011;4492;48.736;9.092;2022-12-07T10:28:53;5.27;;;3.60;;
8913;SDS011;4492;48.736;9.092;2022-12-07T10:31:21;5.37;;;3.73;;
8913;SDS011;4492;48.736;9.092;2022-12-07T10:34:00;4.37;;;3.37;;
8913;SDS011;4492;48.736;9.092;2022-12-07T10:36:30;5.13;;;3.43;;
8913;SDS011;4492;48.736;9.092;2022-12-07T10:41:52;8.53;;;3.60;;
8913;SDS011;4492;48.736;9.092;2022-12-07T10:44:32;4.70;;;3.30;;
8913;SDS011;4492;48.736;9.092;2022-12-07T11:00:43;4.63;;;3.80;;
8913;SDS011;4492;48.736;9.092;2022-12-07T11:05:54;6.00;;;3.10;;
8913;SDS011;4492;48.736;9.092;2022-12-07T11:14:13;4.73;;;3.33;;
8913;SDS011;4492;48.736;9.092;2022-12-07T11:22:46;6.17;;;3.30;;
8913;SDS011;4492;48.736;9.092;2022-12-07T11:30:50;3.90;;;2.93;;
8913;SDS011;4492;48.736;9.092;2022-12-07T11:33:33;3.43;;;3.13;;
8913;SDS011;4492;48.736;9.092;2022-12-07T11:39:10;5.13;;;3.50;;
8913;SDS011;4492;48.736;9.092;2022-12-07T11:41:40;3.57;;;3.10;;
8913;SDS011;4492;48.736;9.092;2022-12-07T11:44:22;3.30;;;2.90;;
8913;SDS011;4492;48.736;9.092;2022-12-07T11:47:11;3.60;;;2.83;;
8913;SDS011;4492;48.736;9.092;2022-12-07T11:50:03;3.83;;;2.90;;
8913;SDS011;4492;48.736;9.092;2022-12-07T11:52:44;4.93;;;2.70;;
8913;SDS011;4492;48.736;9.092;2022-12-07T12:06:32;3.23;;;2.40;;
8913;SDS011;4492;48.736;9.092;2022-12-07T12:09:34;3.23;;;2.53;;
8913;SDS011;4492;48.736;9.092;2022-12-07T12:15:03;3.10;;;1.80;;
8913;SDS011;4492;48.736;9.092;2022-12-07T12:20:04;2.23;;;1.87;;
8913;SDS011;4492;48.736;9.092;2022-12-07T12:23:10;2.00;;;1.83;;
8913;SDS011;4492;48.736;9.092;2022-12-07T12:25:58;3.87;;;1.93;;
8913;SDS011;4492;48.736;9.092;2022-12-07T12:31:14;1.80;;;1.70;;
8913;SDS011;4492;48.736;9.092;2022-12-07T12:33:54;2.77;;;1.60;;
8913;SDS011;4492;48.736;9.092;2022-12-07T12:36:24;2.70;;;1.70;;
8913;SDS011;4492;48.736;9.092;2022-12-07T12:46:54;3.57;;;3.23;;
8913;SDS011;4492;48.736;9.092;2022-12-07T12:51:52;4.47;;;3.33;;
8913;SDS011;4492;48.736;9.092;2022-12-07T12:54:37;4.03;;;3.23;;
8913;SDS011;4492;48.736;9.092;2022-12-07T12:59:36;5.10;;;3.47;;
8913;SDS011;4492;48.736;9.092;2022-12-07T13:12:57;2.80;;;2.30;;
8913;SDS011;4492;48.736;9.092;2022-12-07T13:15:42;3.80;;;2.73;;
8913;SDS011;4492;48.736;9.092;2022-12-07T13:21:39;3.27;;;2.60;;
8913;SDS011;4492;48.736;9.092;2022-12-07T13:28:52;5.13;;;2.90;;
8913;SDS011;4492;48.736;9.092;2022-12-07T13:34:01;2.83;;;2.50;;
8913;SDS011;4492;48.736;9.092;2022-12-07T13:36:32;2.67;;;2.30;;
8913;SDS011;4492;48.736;9.092;2022-12-07T13:41:41;3.27;;;2.33;;
8913;SDS011;4492;48.736;9.092;2022-12-07T13:46:58;3.17;;;2.20;;
8913;SDS011;4492;48.736;9.092;2022-12-07T13:49:32;2.87;;;2.00;;
8913;SDS011;4492;48.736;9.092;2022-12-07T13:55:16;3.23;;;2.37;;
8913;SDS011;4492;48.736;9.092;2022-12-07T13:57:42;4.20;;;2.60;;
8913;SDS011;4492;48.736;9.092;2022-12-07T14:00:15;3.53;;;2.80;;
8913;SDS011;4492;48.736;9.092;2022-12-07T14:06:02;3.43;;;2.80;;
8913;SDS011;4492;48.736;9.092;2022-12-07T14:08:32;3.57;;;2.67;;
8913;SDS011;4492;48.736;9.092;2022-12-07T14:10:58;2.60;;;2.40;;
8913;SDS011;4492;48.736;9.092;2022-12-07T14:16:22;4.10;;;2.63;;
8913;SDS011;4492;48.736;9.092;2022-12-07T14:18:53;3.10;;;2.50;;
8913;SDS011;4492;48.736;9.092;2022-12-07T14:21:21;2.97;;;2.53;;
8913;SDS011;4492;48.736;9.092;2022-12-07T14:24:04;2.73;;;2.53;;
8913;SDS011;4492;48.736;9.092;2022-12-07T14:26:44;3.63;;;2.83;;
8913;SDS011;4492;48.736;9.092;2022-12-07T14:29:18;3.03;;;2.33;;
8913;SDS011;4492;48.736;9.092;2022-12-07T14:31:54;2.50;;;2.07;;
8913;SDS011;4492;48.736;9.092;2022-12-07T14:34:21;3.07;;;2.43;;
8913;SDS011;4492;48.736;9.092;2022-12-07T14:36:47;5.20;;;2.53;;
8913;SDS011;4492;48.736;9.092;2022-12-07T14:39:12;3.73;;;2.97;;
8913;SDS011;4492;48.736;9.092;2022-12-07T14:41:38;3.60;;;2.90;;
8913;SDS011;4492;48.736;9.092;2022-12-07T14:44:16;3.50;;;2.93;;
8913;SDS011;4492;48.736;9.092;2022-12-07T14:46:46;3.57;;;3.00;;
8913;SDS011;4492;48.736;9.092;2022-12-07T14:49:13;3.70;;;2.90;;
8913;SDS011;4492;48.736;9.092;2022-12-07T14:51:39;5.73;;;3.23;;
8913;SDS011;4492;48.736;9.092;2022-12-07T14:54:09;5.00;;;3.40;;
8913;SDS011;4492;48.736;9.092;2022-12-07T14:56:41;4.90;;;3.57;;
8913;SDS011;4492;48.736;9.092;2022-12-07T14:59:08;4.73;;;3.67;;
8913;SDS011;4492;48.736;9.092;2022-12-07T15:01:34;5.10;;;3.03;;
8913;SDS011;4492;48.736;9.092;2022-12-07T15:04:00;5.53;;;3.93;;
8913;SDS011;4492;48.736;9.092;2022-12-07T15:06:25;4.97;;;3.93;;
8913;SDS011;4492;48.736;9.092;2022-12-07T15:08:51;5.87;;;3.77;;
8913;SDS011;4492;48.736;9.092;2022-12-07T15:11:17;4.20;;;3.63;;
8913;SDS011;4492;48.736;9.092;2022-12-07T15:13:43;5.03;;;3.87;;
8913;SDS011;4492;48.736;9.092;2022-12-07T15:16:27;7.10;;;4.30;;
8913;SDS011;4492;48.736;9.092;2022-12-07T15:18:53;5.73;;;4.03;;
8913;SDS011;4492;48.736;9.092;2022-12-07T15:21:18;6.43;;;4.23;;
8913;SDS011;4492;48.736;9.092;2022-12-07T15:23:45;8.47;;;4.10;;
8913;SDS011;4492;48.736;9.092;2022-12-07T15:26:12;7.53;;;4.23;;
8913;SDS011;4492;48.736;9.092;2022-12-07T15:28:38;5.33;;;3.83;;
8913;SDS011;4492;48.736;9.092;2022-12-07T15:31:10;6.40;;;3.70;;
8913;SDS011;4492;48.736;9.092;2022-12-07T15:33:36;4.73;;;3.43;;
8913;SDS011;4492;48.736;9.092;2022-12-07T15:36:02;4.70;;;3.73;;
8913;SDS011;4492;48.736;9.092;2022-12-07T15:38:27;6.80;;;3.50;;
8913;SDS011;4492;48.736;9.092;2022-12-07T15:40:55;3.97;;;3.20;;
8913;SDS011;4492;48.736;9.092;2022-12-07T15:43:21;5.57;;;3.97;;
8913;SDS011;4492;48.736;9.092;2022-12-07T15:46:21;5.47;;;3.73;;
8913;SDS011;4492;48.736;9.092;2022-12-07T15:48:47;6.20;;;3.73;;
8913;SDS011;4492;48.736;9.092;2022-12-07T15:51:13;5.97;;;4.10;;
8913;SDS011;4492;48.736;9.092;2022-12-07T15:53:38;6.17;;;4.27;;
8913;SDS011;4492;48.736;9.092;2022-12-07T15:56:07;6.00;;;4.20;;
8913;SDS011;4492;48.736;9.092;2022-12-07T15:58:33;8.07;;;4.90;;
8913;SDS011;4492;48.736;9.092;2022-12-07T16:00:59;6.07;;;4.13;;
8913;SDS011;4492;48.736;9.092;2022-12-07T16:03:26;9.73;;;5.47;;
8913;SDS011;4492;48.736;9.092;2022-12-07T16:05:52;8.77;;;5.53;;
8913;SDS011;4492;48.736;9.092;2022-12-07T16:08:18;8.87;;;4.63;;
8913;SDS011;4492;48.736;9.092;2022-12-07T16:10:44;6.90;;;4.50;;
8913;SDS011;4492;48.736;9.092;2022-12-07T16:13:10;8.07;;;5.33;;
8913;SDS011;4492;48.736;9.092;2022-12-07T16:15:40;8.83;;;5.17;;
8913;SDS011;4492;48.736;9.092;2022-12-07T16:18:06;9.50;;;5.70;;
8913;SDS011;4492;48.736;9.092;2022-12-07T16:20:32;7.63;;;5.10;;
8913;SDS011;4492;48.736;9.092;2022-12-07T16:22:57;10.50;;;5.53;;
8913;SDS011;4492;48.736;9.092;2022-12-07T16:25:23;8.83;;;5.47;;
8913;SDS011;4492;48.736;9.092;2022-12-07T16:27:49;7.47;;;5.17;;
8913;SDS011;4492;48.736;9.092;2022-12-07T16:30:16;8.20;;;5.03;;
8913;SDS011;4492;48.736;9.092;2022-12-07T16:32:42;8.13;;;5.07;;
8913;SDS011;4492;48.736;9.092;2022-12-07T16:35:08;10.07;;;5.47;;
8913;SDS011;4492;48.736;9.092;2022-12-07T16:37:34;9.23;;;5.50;;
8913;SDS011;4492;48.736;9.092;2022-12-07T16:40:00;10.20;;;5.97;;
8913;SDS011;4492;48.736;9.092;2022-12-07T16:42:25;8.17;;;5.00;;
8913;SDS011;4492;48.736;9.092;2022-12-07T16:44:51;12.73;;;5.90;;
8913;SDS011;4492;48.736;9.092;2022-12-07T16:47:17;11.43;;;6.53;;
8913;SDS011;4492;48.736;9.092;2022-12-07T16:49:42;11.27;;;6.30;;
8913;SDS011;4492;48.736;9.092;2022-12-07T16:52:08;9.97;;;5.97;;
8913;SDS011;4492;48.736;9.092;2022-12-07T16:54:34;8.87;;;6.17;;
8913;SDS011;4492;48.736;9.092;2022-12-07T16:57:01;9.60;;;5.90;;
8913;SDS011;4492;48.736;9.092;2022-12-07T16:59:26;10.83;;;5.73;;
8913;SDS011;4492;48.736;9.092;2022-12-07T17:01:52;11.43;;;6.60;;
8913;SDS011;4492;48.736;9.092;2022-12-07T17:04:17;10.87;;;6.07;;
8913;SDS011;4492;48.736;9.092;2022-12-07T17:06:43;11.27;;;6.27;;
8913;SDS011;4492;48.736;9.092;2022-12-07T17:09:08;12.10;;;6.40;;
8913;SDS011;4492;48.736;9.092;2022-12-07T17:11:34;13.90;;;6.27;;
8913;SDS011;4492;48.736;9.092;2022-12-07T17:14:01;13.07;;;6.80;;
8913;SDS011;4492;48.736;9.092;2022-12-07T17:16:45;12.77;;;6.77;;
8913;SDS011;4492;48.736;9.092;2022-12-07T17:19:12;12.20;;;6.63;;
8913;SDS011;4492;48.736;9.092;2022-12-07T17:21:41;10.07;;;6.40;;
8913;SDS011;4492;48.736;9.092;2022-12-07T17:24:09;11.70;;;6.30;;
8913;SDS011;4492;48.736;9.092;2022-12-07T17:26:36;12.07;;;6.67;;
8913;SDS011;4492;48.736;9.092;2022-12-07T17:29:02;12.60;;;7.17;;
8913;SDS011;4492;48.736;9.092;2022-12-07T17:31:29;17.43;;;7.47;;
8913;SDS011;4492;48.736;9.092;2022-12-07T17:33:55;12.90;;;7.57;;
8913;SDS011;4492;48.736;9.092;2022-12-07T17:36:24;14.53;;;7.83;;
8913;SDS011;4492;48.736;9.092;2022-12-07T17:38:51;10.97;;;6.73;;
8913;SDS011;4492;48.736;9.092;2022-12-07T17:41:18;12.97;;;7.30;;
8913;SDS011;4492;48.736;9.092;2022-12-07T17:44:05;12.63;;;6.47;;
8913;SDS011;4492;48.736;9.092;2022-12-07T17:46:33;11.80;;;6.40;;